Terminal Aerodrome Forecast
Issued by NWS

Home | Current Version | Previous Version | Text Only | Print | Product List | Glossary Off
Versions: 1 2 3 4 5 6 7 8 9 10 11 12 13 14 15 16 17 18 19 20 21 22 23 24 25 26

000
FTUS43 KGRB 031700
TAFRHI
TAF
KRHI 031736Z 0318/0418 20012G18KT P6SM FEW050
     FM032100 23011G17KT P6SM BKN050 OVC090
      TEMPO 0322/0402 33025G35KT 3SM TSRA OVC030CB
     FM040200 28004KT P6SM SCT060 BKN100
     FM040800 33005KT P6SM BKN100
     FM041200 35009KT P6SM SCT120=

USA.gov is the U.S. government's official web portal to all federal, state and local government web resources and services.